sensor_id;sensor_type;location;lat;lon;timestamp;P1;durP1;ratioP1;P2;durP2;ratioP2
23728;SDS011;12045;60.214;24.724;2022-08-19T00:02:15;24.25;;;14.82;;
23728;SDS011;12045;60.214;24.724;2022-08-19T00:04:43;20.67;;;15.25;;
23728;SDS011;12045;60.214;24.724;2022-08-19T00:07:13;17.02;;;15.23;;
23728;SDS011;12045;60.214;24.724;2022-08-19T00:09:41;21.50;;;15.15;;
23728;SDS011;12045;60.214;24.724;2022-08-19T00:12:09;20.23;;;14.52;;
23728;SDS011;12045;60.214;24.724;2022-08-19T00:14:37;18.20;;;14.52;;
23728;SDS011;12045;60.214;24.724;2022-08-19T00:17:06;21.20;;;14.75;;
23728;SDS011;12045;60.214;24.724;2022-08-19T00:19:35;17.17;;;14.88;;
23728;SDS011;12045;60.214;24.724;2022-08-19T00:22:04;19.90;;;15.15;;
23728;SDS011;12045;60.214;24.724;2022-08-19T00:24:32;19.25;;;14.25;;
23728;SDS011;12045;60.214;24.724;2022-08-19T00:27:01;19.48;;;15.23;;
23728;SDS011;12045;60.214;24.724;2022-08-19T00:29:49;17.77;;;14.02;;
23728;SDS011;12045;60.214;24.724;2022-08-19T00:32:18;15.60;;;14.05;;
23728;SDS011;12045;60.214;24.724;2022-08-19T00:34:47;22.85;;;15.10;;
23728;SDS011;12045;60.214;24.724;2022-08-19T00:37:14;23.70;;;14.00;;
23728;SDS011;12045;60.214;24.724;2022-08-19T00:39:42;23.08;;;14.00;;
23728;SDS011;12045;60.214;24.724;2022-08-19T00:42:10;19.35;;;13.43;;
23728;SDS011;12045;60.214;24.724;2022-08-19T00:44:41;19.10;;;13.30;;
23728;SDS011;12045;60.214;24.724;2022-08-19T00:47:10;16.17;;;13.43;;
23728;SDS011;12045;60.214;24.724;2022-08-19T00:49:41;14.35;;;12.68;;
23728;SDS011;12045;60.214;24.724;2022-08-19T00:52:15;19.50;;;13.27;;
23728;SDS011;12045;60.214;24.724;2022-08-19T00:54:46;17.35;;;13.75;;
23728;SDS011;12045;60.214;24.724;2022-08-19T00:57:29;19.63;;;13.05;;
23728;SDS011;12045;60.214;24.724;2022-08-19T01:00:03;18.75;;;12.40;;
23728;SDS011;12045;60.214;24.724;2022-08-19T01:02:35;16.85;;;12.48;;
23728;SDS011;12045;60.214;24.724;2022-08-19T01:05:04;17.17;;;11.70;;
23728;SDS011;12045;60.214;24.724;2022-08-19T01:07:35;17.65;;;11.60;;
23728;SDS011;12045;60.214;24.724;2022-08-19T01:10:07;18.67;;;12.05;;
23728;SDS011;12045;60.214;24.724;2022-08-19T01:12:37;14.32;;;11.95;;
23728;SDS011;12045;60.214;24.724;2022-08-19T01:15:07;14.38;;;12.15;;
23728;SDS011;12045;60.214;24.724;2022-08-19T01:17:38;20.77;;;12.38;;
23728;SDS011;12045;60.214;24.724;2022-08-19T01:20:09;14.68;;;12.13;;
23728;SDS011;12045;60.214;24.724;2022-08-19T01:22:46;16.05;;;12.63;;
23728;SDS011;12045;60.214;24.724;2022-08-19T01:25:15;16.55;;;12.32;;
23728;SDS011;12045;60.214;24.724;2022-08-19T01:27:46;16.33;;;12.90;;
23728;SDS011;12045;60.214;24.724;2022-08-19T01:30:20;19.15;;;12.25;;
23728;SDS011;12045;60.214;24.724;2022-08-19T01:32:52;19.08;;;12.90;;
23728;SDS011;12045;60.214;24.724;2022-08-19T01:35:21;13.13;;;11.65;;
23728;SDS011;12045;60.214;24.724;2022-08-19T01:37:52;13.15;;;11.63;;
23728;SDS011;12045;60.214;24.724;2022-08-19T01:40:23;17.77;;;11.98;;
23728;SDS011;12045;60.214;24.724;2022-08-19T01:42:53;16.65;;;12.00;;
23728;SDS011;12045;60.214;24.724;2022-08-19T01:45:22;15.65;;;11.98;;
23728;SDS011;12045;60.214;24.724;2022-08-19T01:47:52;18.95;;;12.10;;
23728;SDS011;12045;60.214;24.724;2022-08-19T01:50:29;21.08;;;12.93;;
23728;SDS011;12045;60.214;24.724;2022-08-19T01:52:58;18.70;;;12.45;;
23728;SDS011;12045;60.214;24.724;2022-08-19T01:55:34;14.95;;;11.77;;
23728;SDS011;12045;60.214;24.724;2022-08-19T01:58:07;19.23;;;12.50;;
23728;SDS011;12045;60.214;24.724;2022-08-19T02:00:39;14.98;;;12.38;;
23728;SDS011;12045;60.214;24.724;2022-08-19T02:03:07;17.95;;;12.43;;
23728;SDS011;12045;60.214;24.724;2022-08-19T02:05:36;20.27;;;12.13;;
23728;SDS011;12045;60.214;24.724;2022-08-19T02:08:04;15.23;;;12.00;;
23728;SDS011;12045;60.214;24.724;2022-08-19T02:10:32;16.63;;;12.15;;
23728;SDS011;12045;60.214;24.724;2022-08-19T02:12:59;14.85;;;11.80;;
23728;SDS011;12045;60.214;24.724;2022-08-19T02:15:27;17.10;;;12.55;;
23728;SDS011;12045;60.214;24.724;2022-08-19T02:17:54;18.80;;;13.07;;
23728;SDS011;12045;60.214;24.724;2022-08-19T02:20:22;17.20;;;12.50;;
23728;SDS011;12045;60.214;24.724;2022-08-19T02:22:49;18.48;;;12.60;;
23728;SDS011;12045;60.214;24.724;2022-08-19T02:25:17;14.70;;;12.75;;
23728;SDS011;12045;60.214;24.724;2022-08-19T02:27:44;18.60;;;13.38;;
23728;SDS011;12045;60.214;24.724;2022-08-19T02:30:13;15.43;;;12.52;;
23728;SDS011;12045;60.214;24.724;2022-08-19T02:32:42;16.25;;;12.68;;
23728;SDS011;12045;60.214;24.724;2022-08-19T02:35:11;15.48;;;12.88;;
23728;SDS011;12045;60.214;24.724;2022-08-19T02:37:41;17.05;;;12.55;;
23728;SDS011;12045;60.214;24.724;2022-08-19T02:40:29;19.00;;;13.05;;
23728;SDS011;12045;60.214;24.724;2022-08-19T02:43:01;20.13;;;12.23;;
23728;SDS011;12045;60.214;24.724;2022-08-19T02:45:35;17.70;;;13.45;;
23728;SDS011;12045;60.214;24.724;2022-08-19T02:48:07;15.82;;;12.60;;
23728;SDS011;12045;60.214;24.724;2022-08-19T02:50:47;21.25;;;12.65;;
23728;SDS011;12045;60.214;24.724;2022-08-19T02:53:19;19.13;;;12.93;;
23728;SDS011;12045;60.214;24.724;2022-08-19T02:55:51;17.63;;;12.73;;
23728;SDS011;12045;60.214;24.724;2022-08-19T02:58:19;18.05;;;12.75;;
23728;SDS011;12045;60.214;24.724;2022-08-19T03:00:49;18.23;;;13.02;;
23728;SDS011;12045;60.214;24.724;2022-08-19T03:03:19;19.08;;;13.07;;
23728;SDS011;12045;60.214;24.724;2022-08-19T03:05:46;20.52;;;13.45;;
23728;SDS011;12045;60.214;24.724;2022-08-19T03:08:23;20.15;;;14.35;;
23728;SDS011;12045;60.214;24.724;2022-08-19T03:10:52;17.95;;;13.75;;
23728;SDS011;12045;60.214;24.724;2022-08-19T03:13:20;16.40;;;13.20;;
23728;SDS011;12045;60.214;24.724;2022-08-19T03:15:48;21.77;;;13.35;;
23728;SDS011;12045;60.214;24.724;2022-08-19T03:18:16;18.50;;;13.07;;
23728;SDS011;12045;60.214;24.724;2022-08-19T03:20:45;20.20;;;13.07;;
23728;SDS011;12045;60.214;24.724;2022-08-19T03:23:15;15.90;;;12.90;;
23728;SDS011;12045;60.214;24.724;2022-08-19T03:25:44;24.75;;;13.48;;
23728;SDS011;12045;60.214;24.724;2022-08-19T03:28:28;17.48;;;13.48;;
23728;SDS011;12045;60.214;24.724;2022-08-19T03:30:57;16.70;;;13.15;;
23728;SDS011;12045;60.214;24.724;2022-08-19T03:33:30;19.00;;;13.52;;
23728;SDS011;12045;60.214;24.724;2022-08-19T03:36:10;19.02;;;12.52;;
23728;SDS011;12045;60.214;24.724;2022-08-19T03:38:45;20.58;;;13.40;;
23728;SDS011;12045;60.214;24.724;2022-08-19T03:41:23;18.48;;;13.30;;
23728;SDS011;12045;60.214;24.724;2022-08-19T03:44:11;16.35;;;13.27;;
23728;SDS011;12045;60.214;24.724;2022-08-19T03:46:46;19.35;;;13.95;;
23728;SDS011;12045;60.214;24.724;2022-08-19T03:49:16;16.52;;;13.02;;
23728;SDS011;12045;60.214;24.724;2022-08-19T03:51:45;24.77;;;14.43;;
23728;SDS011;12045;60.214;24.724;2022-08-19T03:54:16;22.52;;;13.63;;
23728;SDS011;12045;60.214;24.724;2022-08-19T03:56:46;14.80;;;13.23;;
23728;SDS011;12045;60.214;24.724;2022-08-19T03:59:17;18.33;;;13.27;;
23728;SDS011;12045;60.214;24.724;2022-08-19T04:01:46;17.63;;;13.05;;
23728;SDS011;12045;60.214;24.724;2022-08-19T04:04:14;19.73;;;13.25;;
23728;SDS011;12045;60.214;24.724;2022-08-19T04:06:43;15.88;;;13.35;;
23728;SDS011;12045;60.214;24.724;2022-08-19T04:09:14;19.58;;;13.15;;
23728;SDS011;12045;60.214;24.724;2022-08-19T04:11:45;16.77;;;13.23;;
23728;SDS011;12045;60.214;24.724;2022-08-19T04:14:17;17.77;;;12.90;;
23728;SDS011;12045;60.214;24.724;2022-08-19T04:16:46;18.05;;;13.38;;
23728;SDS011;12045;60.214;24.724;2022-08-19T04:19:15;19.40;;;13.55;;
23728;SDS011;12045;60.214;24.724;2022-08-19T04:21:45;14.88;;;12.80;;
23728;SDS011;12045;60.214;24.724;2022-08-19T04:24:15;20.98;;;13.35;;
23728;SDS011;12045;60.214;24.724;2022-08-19T04:26:44;14.18;;;12.68;;
23728;SDS011;12045;60.214;24.724;2022-08-19T04:29:14;15.75;;;12.25;;
23728;SDS011;12045;60.214;24.724;2022-08-19T04:31:52;17.23;;;13.30;;
23728;SDS011;12045;60.214;24.724;2022-08-19T04:34:23;15.00;;;12.85;;
23728;SDS011;12045;60.214;24.724;2022-08-19T04:36:53;23.90;;;12.75;;
23728;SDS011;12045;60.214;24.724;2022-08-19T04:39:25;18.23;;;12.55;;
23728;SDS011;12045;60.214;24.724;2022-08-19T04:42:17;19.23;;;12.43;;
23728;SDS011;12045;60.214;24.724;2022-08-19T04:45:04;15.80;;;12.45;;
23728;SDS011;12045;60.214;24.724;2022-08-19T04:47:36;18.33;;;11.95;;
23728;SDS011;12045;60.214;24.724;2022-08-19T04:50:24;21.70;;;12.70;;
23728;SDS011;12045;60.214;24.724;2022-08-19T04:52:53;13.93;;;12.40;;
23728;SDS011;12045;60.214;24.724;2022-08-19T04:55:23;17.23;;;12.80;;
23728;SDS011;12045;60.214;24.724;2022-08-19T04:57:53;16.88;;;12.15;;
23728;SDS011;12045;60.214;24.724;2022-08-19T05:00:21;20.13;;;13.00;;
23728;SDS011;12045;60.214;24.724;2022-08-19T05:02:49;14.90;;;12.43;;
23728;SDS011;12045;60.214;24.724;2022-08-19T05:05:17;15.27;;;12.10;;
23728;SDS011;12045;60.214;24.724;2022-08-19T05:07:45;20.15;;;12.15;;
23728;SDS011;12045;60.214;24.724;2022-08-19T05:10:30;20.60;;;12.18;;
23728;SDS011;12045;60.214;24.724;2022-08-19T05:13:21;16.35;;;12.13;;
23728;SDS011;12045;60.214;24.724;2022-08-19T05:15:57;14.98;;;11.73;;
23728;SDS011;12045;60.214;24.724;2022-08-19T05:21:41;18.17;;;11.63;;
23728;SDS011;12045;60.214;24.724;2022-08-19T05:24:29;14.65;;;11.82;;
23728;SDS011;12045;60.214;24.724;2022-08-19T05:27:27;17.08;;;11.88;;
23728;SDS011;12045;60.214;24.724;2022-08-19T05:29:56;16.67;;;12.07;;
23728;SDS011;12045;60.214;24.724;2022-08-19T05:32:27;17.70;;;11.82;;
23728;SDS011;12045;60.214;24.724;2022-08-19T05:34:59;18.90;;;12.02;;
23728;SDS011;12045;60.214;24.724;2022-08-19T05:37:35;15.25;;;11.93;;
23728;SDS011;12045;60.214;24.724;2022-08-19T05:40:03;15.40;;;11.57;;
23728;SDS011;12045;60.214;24.724;2022-08-19T05:42:31;17.33;;;11.25;;
23728;SDS011;12045;60.214;24.724;2022-08-19T05:45:00;15.38;;;10.85;;
23728;SDS011;12045;60.214;24.724;2022-08-19T05:47:32;14.88;;;11.07;;
23728;SDS011;12045;60.214;24.724;2022-08-19T05:50:08;14.93;;;11.63;;
23728;SDS011;12045;60.214;24.724;2022-08-19T05:52:43;17.92;;;11.55;;
23728;SDS011;12045;60.214;24.724;2022-08-19T05:55:16;15.38;;;11.20;;
23728;SDS011;12045;60.214;24.724;2022-08-19T05:57:46;15.15;;;11.80;;
23728;SDS011;12045;60.214;24.724;2022-08-19T06:00:36;12.65;;;11.35;;
23728;SDS011;12045;60.214;24.724;2022-08-19T06:03:10;16.23;;;11.70;;
23728;SDS011;12045;60.214;24.724;2022-08-19T06:05:39;13.07;;;11.70;;
23728;SDS011;12045;60.214;24.724;2022-08-19T06:08:18;15.27;;;11.50;;
23728;SDS011;12045;60.214;24.724;2022-08-19T06:10:59;18.05;;;11.60;;
23728;SDS011;12045;60.214;24.724;2022-08-19T06:13:42;17.15;;;11.63;;
23728;SDS011;12045;60.214;24.724;2022-08-19T06:16:11;18.60;;;12.40;;
23728;SDS011;12045;60.214;24.724;2022-08-19T06:18:41;16.40;;;11.48;;
23728;SDS011;12045;60.214;24.724;2022-08-19T06:21:12;13.40;;;11.57;;
23728;SDS011;12045;60.214;24.724;2022-08-19T06:24:02;13.48;;;10.90;;
23728;SDS011;12045;60.214;24.724;2022-08-19T06:26:39;19.15;;;11.77;;
23728;SDS011;12045;60.214;24.724;2022-08-19T06:29:09;30.80;;;11.75;;
23728;SDS011;12045;60.214;24.724;2022-08-19T06:37:31;15.88;;;11.00;;
23728;SDS011;12045;60.214;24.724;2022-08-19T06:40:15;15.55;;;11.57;;
23728;SDS011;12045;60.214;24.724;2022-08-19T06:42:50;16.65;;;11.48;;
23728;SDS011;12045;60.214;24.724;2022-08-19T06:45:33;18.15;;;12.05;;
23728;SDS011;12045;60.214;24.724;2022-08-19T06:48:05;15.90;;;11.80;;
23728;SDS011;12045;60.214;24.724;2022-08-19T06:50:38;13.30;;;11.75;;
23728;SDS011;12045;60.214;24.724;2022-08-19T06:53:07;15.60;;;11.75;;
23728;SDS011;12045;60.214;24.724;2022-08-19T06:55:57;15.90;;;12.07;;
23728;SDS011;12045;60.214;24.724;2022-08-19T06:58:29;16.02;;;11.80;;
23728;SDS011;12045;60.214;24.724;2022-08-19T07:01:11;14.40;;;11.68;;
23728;SDS011;12045;60.214;24.724;2022-08-19T07:06:45;14.52;;;11.85;;
23728;SDS011;12045;60.214;24.724;2022-08-19T07:09:22;14.95;;;11.23;;
23728;SDS011;12045;60.214;24.724;2022-08-19T07:11:53;16.08;;;12.05;;
23728;SDS011;12045;60.214;24.724;2022-08-19T07:14:28;14.00;;;11.35;;
23728;SDS011;12045;60.214;24.724;2022-08-19T07:16:57;18.83;;;12.32;;
23728;SDS011;12045;60.214;24.724;2022-08-19T07:19:47;14.90;;;11.52;;
23728;SDS011;12045;60.214;24.724;2022-08-19T07:22:38;16.48;;;11.38;;
23728;SDS011;12045;60.214;24.724;2022-08-19T07:25:09;12.40;;;11.10;;
23728;SDS011;12045;60.214;24.724;2022-08-19T07:37:26;14.32;;;10.88;;
23728;SDS011;12045;60.214;24.724;2022-08-19T07:40:16;14.80;;;10.43;;
23728;SDS011;12045;60.214;24.724;2022-08-19T07:43:16;12.43;;;10.68;;
23728;SDS011;12045;60.214;24.724;2022-08-19T07:48:44;13.82;;;10.55;;
23728;SDS011;12045;60.214;24.724;2022-08-19T07:51:20;13.40;;;10.98;;
23728;SDS011;12045;60.214;24.724;2022-08-19T07:54:02;12.07;;;10.45;;
23728;SDS011;12045;60.214;24.724;2022-08-19T08:00:03;17.02;;;10.23;;
23728;SDS011;12045;60.214;24.724;2022-08-19T08:02:37;12.55;;;10.07;;
23728;SDS011;12045;60.214;24.724;2022-08-19T08:05:28;15.30;;;10.60;;
23728;SDS011;12045;60.214;24.724;2022-08-19T08:08:19;15.13;;;10.43;;
23728;SDS011;12045;60.214;24.724;2022-08-19T08:11:44;13.77;;;10.30;;
23728;SDS011;12045;60.214;24.724;2022-08-19T08:14:33;12.02;;;9.63;;
23728;SDS011;12045;60.214;24.724;2022-08-19T08:17:15;12.43;;;10.30;;
23728;SDS011;12045;60.214;24.724;2022-08-19T08:20:14;10.63;;;9.52;;
23728;SDS011;12045;60.214;24.724;2022-08-19T08:22:47;14.65;;;10.40;;
23728;SDS011;12045;60.214;24.724;2022-08-19T08:25:36;15.60;;;10.40;;
23728;SDS011;12045;60.214;24.724;2022-08-19T08:28:09;15.88;;;10.50;;
23728;SDS011;12045;60.214;24.724;2022-08-19T08:30:44;14.60;;;9.77;;
23728;SDS011;12045;60.214;24.724;2022-08-19T08:33:25;15.90;;;9.52;;
23728;SDS011;12045;60.214;24.724;2022-08-19T08:36:06;15.70;;;9.65;;
23728;SDS011;12045;60.214;24.724;2022-08-19T08:38:37;19.05;;;10.23;;
23728;SDS011;12045;60.214;24.724;2022-08-19T08:43:44;11.48;;;9.63;;
23728;SDS011;12045;60.214;24.724;2022-08-19T08:46:35;13.35;;;9.32;;
23728;SDS011;12045;60.214;24.724;2022-08-19T08:49:40;13.18;;;9.45;;
23728;SDS011;12045;60.214;24.724;2022-08-19T08:52:19;15.93;;;10.20;;
23728;SDS011;12045;60.214;24.724;2022-08-19T08:55:00;13.73;;;9.98;;
23728;SDS011;12045;60.214;24.724;2022-08-19T08:57:38;13.07;;;10.52;;
23728;SDS011;12045;60.214;24.724;2022-08-19T09:00:10;17.90;;;10.50;;
23728;SDS011;12045;60.214;24.724;2022-08-19T09:02:45;15.05;;;9.75;;
23728;SDS011;12045;60.214;24.724;2022-08-19T09:05:18;11.23;;;10.05;;
23728;SDS011;12045;60.214;24.724;2022-08-19T09:08:55;12.45;;;9.68;;
23728;SDS011;12045;60.214;24.724;2022-08-19T09:10:57;13.88;;;9.50;;
23728;SDS011;12045;60.214;24.724;2022-08-19T09:16:35;13.68;;;10.68;;
23728;SDS011;12045;60.214;24.724;2022-08-19T09:19:08;13.77;;;10.20;;
23728;SDS011;12045;60.214;24.724;2022-08-19T09:21:48;12.20;;;10.18;;
23728;SDS011;12045;60.214;24.724;2022-08-19T09:24:22;12.98;;;10.10;;
23728;SDS011;12045;60.214;24.724;2022-08-19T09:29:51;15.07;;;10.23;;
23728;SDS011;12045;60.214;24.724;2022-08-19T09:32:25;17.73;;;10.18;;
23728;SDS011;12045;60.214;24.724;2022-08-19T09:34:56;17.92;;;10.32;;
23728;SDS011;12045;60.214;24.724;2022-08-19T09:37:34;16.05;;;10.70;;
23728;SDS011;12045;60.214;24.724;2022-08-19T09:40:09;11.13;;;9.93;;
23728;SDS011;12045;60.214;24.724;2022-08-19T09:42:43;15.10;;;10.07;;
23728;SDS011;12045;60.214;24.724;2022-08-19T09:45:19;12.48;;;10.25;;
23728;SDS011;12045;60.214;24.724;2022-08-19T09:47:50;14.05;;;10.57;;
23728;SDS011;12045;60.214;24.724;2022-08-19T09:50:24;14.48;;;10.02;;
23728;SDS011;12045;60.214;24.724;2022-08-19T09:53:00;11.57;;;9.73;;
23728;SDS011;12045;60.214;24.724;2022-08-19T09:55:32;15.88;;;10.15;;
23728;SDS011;12045;60.214;24.724;2022-08-19T09:58:00;14.43;;;10.23;;
23728;SDS011;12045;60.214;24.724;2022-08-19T10:00:37;12.75;;;9.93;;
23728;SDS011;12045;60.214;24.724;2022-08-19T10:03:16;11.70;;;9.80;;
23728;SDS011;12045;60.214;24.724;2022-08-19T10:05:44;11.80;;;9.50;;
23728;SDS011;12045;60.214;24.724;2022-08-19T10:08:23;16.95;;;10.02;;
23728;SDS011;12045;60.214;24.724;2022-08-19T10:10:55;31.45;;;10.38;;
23728;SDS011;12045;60.214;24.724;2022-08-19T10:13:27;23.70;;;9.80;;
23728;SDS011;12045;60.214;24.724;2022-08-19T10:15:57;12.57;;;9.35;;
23728;SDS011;12045;60.214;24.724;2022-08-19T10:18:33;14.18;;;9.02;;
23728;SDS011;12045;60.214;24.724;2022-08-19T10:21:26;12.02;;;9.27;;
23728;SDS011;12045;60.214;24.724;2022-08-19T10:24:00;9.35;;;8.30;;
23728;SDS011;12045;60.214;24.724;2022-08-19T10:26:33;14.60;;;8.93;;
23728;SDS011;12045;60.214;24.724;2022-08-19T10:29:04;12.45;;;8.55;;
23728;SDS011;12045;60.214;24.724;2022-08-19T10:31:35;13.38;;;8.70;;
23728;SDS011;12045;60.214;24.724;2022-08-19T10:34:23;14.40;;;8.68;;
23728;SDS011;12045;60.214;24.724;2022-08-19T10:36:54;18.85;;;8.38;;
23728;SDS011;12045;60.214;24.724;2022-08-19T10:39:28;12.63;;;8.50;;
23728;SDS011;12045;60.214;24.724;2022-08-19T10:41:59;14.85;;;8.57;;
23728;SDS011;12045;60.214;24.724;2022-08-19T10:44:33;12.60;;;8.55;;
23728;SDS011;12045;60.214;24.724;2022-08-19T10:47:02;9.70;;;8.02;;
23728;SDS011;12045;60.214;24.724;2022-08-19T10:49:43;12.68;;;7.78;;
23728;SDS011;12045;60.214;24.724;2022-08-19T10:52:44;10.05;;;7.90;;
23728;SDS011;12045;60.214;24.724;2022-08-19T10:59:33;12.82;;;8.02;;
23728;SDS011;12045;60.214;24.724;2022-08-19T11:02:03;11.93;;;7.70;;
23728;SDS011;12045;60.214;24.724;2022-08-19T11:04:34;13.65;;;7.70;;
23728;SDS011;12045;60.214;24.724;2022-08-19T11:07:03;10.07;;;7.57;;
23728;SDS011;12045;60.214;24.724;2022-08-19T11:09:36;10.48;;;8.00;;
23728;SDS011;12045;60.214;24.724;2022-08-19T11:12:09;11.35;;;7.57;;
23728;SDS011;12045;60.214;24.724;2022-08-19T11:14:40;12.93;;;7.57;;
23728;SDS011;12045;60.214;24.724;2022-08-19T11:17:08;14.80;;;7.38;;
23728;SDS011;12045;60.214;24.724;2022-08-19T11:19:58;9.23;;;7.70;;
23728;SDS011;12045;60.214;24.724;2022-08-19T11:22:30;10.40;;;7.68;;
23728;SDS011;12045;60.214;24.724;2022-08-19T11:28:10;15.57;;;7.60;;
23728;SDS011;12045;60.214;24.724;2022-08-19T11:30:39;13.80;;;7.15;;
23728;SDS011;12045;60.214;24.724;2022-08-19T11:33:06;9.90;;;7.45;;
23728;SDS011;12045;60.214;24.724;2022-08-19T11:35:38;11.48;;;7.25;;
23728;SDS011;12045;60.214;24.724;2022-08-19T11:38:08;9.90;;;6.93;;
23728;SDS011;12045;60.214;24.724;2022-08-19T11:40:36;8.52;;;7.68;;
23728;SDS011;12045;60.214;24.724;2022-08-19T11:43:04;10.68;;;7.07;;
23728;SDS011;12045;60.214;24.724;2022-08-19T11:45:31;10.07;;;7.20;;
23728;SDS011;12045;60.214;24.724;2022-08-19T11:47:59;10.65;;;7.53;;
23728;SDS011;12045;60.214;24.724;2022-08-19T11:50:27;13.82;;;7.30;;
23728;SDS011;12045;60.214;24.724;2022-08-19T11:52:55;10.40;;;7.20;;
23728;SDS011;12045;60.214;24.724;2022-08-19T11:55:23;9.27;;;6.68;;
23728;SDS011;12045;60.214;24.724;2022-08-19T11:57:51;14.48;;;7.20;;
23728;SDS011;12045;60.214;24.724;2022-08-19T12:00:19;13.90;;;7.90;;
23728;SDS011;12045;60.214;24.724;2022-08-19T12:02:46;11.80;;;7.97;;
23728;SDS011;12045;60.214;24.724;2022-08-19T12:05:14;11.13;;;7.35;;
23728;SDS011;12045;60.214;24.724;2022-08-19T12:07:41;9.32;;;7.82;;
23728;SDS011;12045;60.214;24.724;2022-08-19T12:10:10;8.38;;;7.03;;
23728;SDS011;12045;60.214;24.724;2022-08-19T12:12:38;12.30;;;7.82;;
23728;SDS011;12045;60.214;24.724;2022-08-19T12:15:11;10.10;;;7.03;;
23728;SDS011;12045;60.214;24.724;2022-08-19T12:17:40;11.07;;;7.80;;
23728;SDS011;12045;60.214;24.724;2022-08-19T12:20:09;10.65;;;7.63;;
23728;SDS011;12045;60.214;24.724;2022-08-19T12:22:38;12.52;;;7.32;;
23728;SDS011;12045;60.214;24.724;2022-08-19T12:25:09;9.85;;;6.47;;
23728;SDS011;12045;60.214;24.724;2022-08-19T12:27:38;8.35;;;6.60;;
23728;SDS011;12045;60.214;24.724;2022-08-19T12:30:15;9.98;;;7.53;;
23728;SDS011;12045;60.214;24.724;2022-08-19T12:32:42;14.25;;;6.95;;
23728;SDS011;12045;60.214;24.724;2022-08-19T12:35:10;11.98;;;7.00;;
23728;SDS011;12045;60.214;24.724;2022-08-19T12:37:38;8.30;;;6.57;;
23728;SDS011;12045;60.214;24.724;2022-08-19T12:40:09;11.75;;;6.90;;
23728;SDS011;12045;60.214;24.724;2022-08-19T12:42:38;12.73;;;7.32;;
23728;SDS011;12045;60.214;24.724;2022-08-19T12:45:10;9.90;;;6.95;;
23728;SDS011;12045;60.214;24.724;2022-08-19T12:47:39;13.10;;;7.65;;
23728;SDS011;12045;60.214;24.724;2022-08-19T12:50:11;10.50;;;7.65;;
23728;SDS011;12045;60.214;24.724;2022-08-19T12:52:39;13.48;;;7.60;;
23728;SDS011;12045;60.214;24.724;2022-08-19T12:55:09;12.60;;;6.97;;
23728;SDS011;12045;60.214;24.724;2022-08-19T12:57:38;12.75;;;7.45;;
23728;SDS011;12045;60.214;24.724;2022-08-19T13:00:07;12.38;;;7.63;;
23728;SDS011;12045;60.214;24.724;2022-08-19T13:02:39;13.57;;;7.70;;
23728;SDS011;12045;60.214;24.724;2022-08-19T13:05:09;11.85;;;7.85;;
23728;SDS011;12045;60.214;24.724;2022-08-19T13:07:39;15.60;;;8.00;;
23728;SDS011;12045;60.214;24.724;2022-08-19T13:10:07;11.43;;;7.20;;
23728;SDS011;12045;60.214;24.724;2022-08-19T13:12:36;16.80;;;7.30;;
23728;SDS011;12045;60.214;24.724;2022-08-19T13:15:04;9.93;;;7.40;;
23728;SDS011;12045;60.214;24.724;2022-08-19T13:17:38;13.88;;;7.78;;
23728;SDS011;12045;60.214;24.724;2022-08-19T13:20:07;12.85;;;8.07;;
23728;SDS011;12045;60.214;24.724;2022-08-19T13:22:36;10.93;;;7.63;;
23728;SDS011;12045;60.214;24.724;2022-08-19T13:25:08;12.23;;;7.63;;
23728;SDS011;12045;60.214;24.724;2022-08-19T13:27:36;8.63;;;7.22;;
23728;SDS011;12045;60.214;24.724;2022-08-19T13:30:05;16.08;;;8.20;;
23728;SDS011;12045;60.214;24.724;2022-08-19T13:32:54;16.13;;;7.10;;
23728;SDS011;12045;60.214;24.724;2022-08-19T13:35:46;10.50;;;7.47;;
23728;SDS011;12045;60.214;24.724;2022-08-19T13:38:20;10.75;;;7.22;;
23728;SDS011;12045;60.214;24.724;2022-08-19T13:40:49;12.40;;;7.50;;
23728;SDS011;12045;60.214;24.724;2022-08-19T13:43:19;13.63;;;7.63;;
23728;SDS011;12045;60.214;24.724;2022-08-19T13:45:50;11.45;;;7.13;;
23728;SDS011;12045;60.214;24.724;2022-08-19T13:48:22;11.48;;;8.05;;
23728;SDS011;12045;60.214;24.724;2022-08-19T13:50:51;11.13;;;7.43;;
23728;SDS011;12045;60.214;24.724;2022-08-19T13:53:18;11.68;;;7.20;;
23728;SDS011;12045;60.214;24.724;2022-08-19T13:55:46;13.48;;;8.07;;
23728;SDS011;12045;60.214;24.724;2022-08-19T13:58:13;10.07;;;7.57;;
23728;SDS011;12045;60.214;24.724;2022-08-19T14:00:44;12.30;;;7.63;;
23728;SDS011;12045;60.214;24.724;2022-08-19T14:03:12;10.05;;;7.05;;
23728;SDS011;12045;60.214;24.724;2022-08-19T14:05:40;12.95;;;7.65;;
23728;SDS011;12045;60.214;24.724;2022-08-19T14:08:08;11.05;;;7.65;;
23728;SDS011;12045;60.214;24.724;2022-08-19T14:10:36;12.05;;;7.45;;
23728;SDS011;12045;60.214;24.724;2022-08-19T14:13:03;9.82;;;7.55;;
23728;SDS011;12045;60.214;24.724;2022-08-19T14:15:31;9.30;;;7.65;;
23728;SDS011;12045;60.214;24.724;2022-08-19T14:17:59;12.38;;;7.57;;
23728;SDS011;12045;60.214;24.724;2022-08-19T14:20:26;9.32;;;8.07;;
23728;SDS011;12045;60.214;24.724;2022-08-19T14:22:54;9.52;;;7.90;;
23728;SDS011;12045;60.214;24.724;2022-08-19T14:25:24;11.60;;;7.95;;
23728;SDS011;12045;60.214;24.724;2022-08-19T14:27:54;13.90;;;8.23;;
23728;SDS011;12045;60.214;24.724;2022-08-19T14:30:24;12.48;;;7.90;;
23728;SDS011;12045;60.214;24.724;2022-08-19T14:32:58;8.40;;;7.57;;
23728;SDS011;12045;60.214;24.724;2022-08-19T14:35:28;9.93;;;8.05;;
23728;SDS011;12045;60.214;24.724;2022-08-19T14:38:01;10.32;;;8.02;;
23728;SDS011;12045;60.214;24.724;2022-08-19T14:40:31;14.73;;;8.00;;
23728;SDS011;12045;60.214;24.724;2022-08-19T14:43:00;14.93;;;8.32;;
23728;SDS011;12045;60.214;24.724;2022-08-19T14:45:32;10.98;;;7.45;;
23728;SDS011;12045;60.214;24.724;2022-08-19T14:48:06;10.02;;;7.72;;
23728;SDS011;12045;60.214;24.724;2022-08-19T14:50:44;12.68;;;8.10;;
23728;SDS011;12045;60.214;24.724;2022-08-19T14:53:12;14.20;;;7.95;;
23728;SDS011;12045;60.214;24.724;2022-08-19T14:55:41;14.40;;;7.15;;
23728;SDS011;12045;60.214;24.724;2022-08-19T14:58:09;13.50;;;8.05;;
23728;SDS011;12045;60.214;24.724;2022-08-19T15:00:57;10.13;;;7.45;;
23728;SDS011;12045;60.214;24.724;2022-08-19T15:03:26;12.60;;;7.90;;
23728;SDS011;12045;60.214;24.724;2022-08-19T15:05:54;14.30;;;7.47;;
23728;SDS011;12045;60.214;24.724;2022-08-19T15:08:24;9.23;;;7.40;;
23728;SDS011;12045;60.214;24.724;2022-08-19T15:10:52;12.05;;;7.80;;
23728;SDS011;12045;60.214;24.724;2022-08-19T15:13:20;12.70;;;8.00;;
23728;SDS011;12045;60.214;24.724;2022-08-19T15:15:48;11.88;;;8.10;;
23728;SDS011;12045;60.214;24.724;2022-08-19T15:18:15;13.50;;;8.10;;
23728;SDS011;12045;60.214;24.724;2022-08-19T15:20:43;11.18;;;7.68;;
23728;SDS011;12045;60.214;24.724;2022-08-19T15:23:16;13.90;;;8.10;;
23728;SDS011;12045;60.214;24.724;2022-08-19T15:25:44;11.05;;;8.23;;
23728;SDS011;12045;60.214;24.724;2022-08-19T15:28:12;12.30;;;7.70;;
23728;SDS011;12045;60.214;24.724;2022-08-19T15:30:42;15.10;;;8.40;;
23728;SDS011;12045;60.214;24.724;2022-08-19T15:33:10;10.95;;;8.07;;
23728;SDS011;12045;60.214;24.724;2022-08-19T15:35:41;13.60;;;8.68;;